createdAt,value
2022-09-24T00:01:42.888Z,18.90
2022-09-24T00:04:12.385Z,18.25
2022-09-24T00:06:43.152Z,19.13
2022-09-24T00:09:11.761Z,20.77
2022-09-24T00:11:38.868Z,21.00
2022-09-24T00:14:07.079Z,21.00
2022-09-24T00:16:36.831Z,18.77
2022-09-24T00:19:05.144Z,19.13
2022-09-24T00:21:34.120Z,20.85
2022-09-24T00:24:03.820Z,17.58
2022-09-24T00:26:49.148Z,21.40
2022-09-24T00:29:21.218Z,21.33
2022-09-24T00:31:48.728Z,22.92
2022-09-24T00:34:15.674Z,22.48
2022-09-24T00:36:42.456Z,23.38
2022-09-24T00:39:09.285Z,23.58
2022-09-24T00:41:37.893Z,24.27
2022-09-24T00:44:40.773Z,22.85
2022-09-24T00:47:27.141Z,20.83
2022-09-24T00:50:05.651Z,20.83
2022-09-24T00:52:34.666Z,20.48
2022-09-24T00:55:01.431Z,22.88
2022-09-24T00:57:28.597Z,22.42
2022-09-24T00:59:56.408Z,20.65
2022-09-24T01:02:24.251Z,20.58
2022-09-24T01:04:54.352Z,21.95
2022-09-24T01:07:23.156Z,21.77
2022-09-24T01:09:49.935Z,23.25
2022-09-24T01:12:28.348Z,22.52
2022-09-24T01:14:58.565Z,20.35
2022-09-24T01:17:54.143Z,23.45
2022-09-24T01:20:58.353Z,22.38
2022-09-24T01:24:00.317Z,24.35
2022-09-24T01:26:48.462Z,20.42
2022-09-24T01:29:32.164Z,21.75
2022-09-24T01:32:06.631Z,24.10
2022-09-24T01:34:46.943Z,26.45
2022-09-24T01:37:16.495Z,19.30
2022-09-24T01:39:45.382Z,19.30
2022-09-24T01:42:13.572Z,23.58
2022-09-24T01:44:42.486Z,23.00
2022-09-24T01:47:13.132Z,21.73
2022-09-24T01:49:39.949Z,18.85
2022-09-24T01:52:10.367Z,15.23
2022-09-24T01:54:43.234Z,20.50
2022-09-24T01:57:17.469Z,19.02
2022-09-24T01:59:57.693Z,21.67
2022-09-24T02:02:28.995Z,23.17
2022-09-24T02:07:32.035Z,20.92
2022-09-24T02:09:58.924Z,18.13
2022-09-24T02:12:29.851Z,21.27
2022-09-24T02:15:09.092Z,17.48
2022-09-24T02:17:38.286Z,22.38
2022-09-24T02:20:09.578Z,21.17
2022-09-24T02:25:05.186Z,25.65
2022-09-24T02:27:32.013Z,25.60
2022-09-24T02:29:59.494Z,29.40
2022-09-24T02:32:28.662Z,24.92
2022-09-24T02:34:59.464Z,29.65
2022-09-24T02:37:26.241Z,27.35
2022-09-24T02:39:53.079Z,26.08
2022-09-24T02:42:20.779Z,24.45
2022-09-24T02:44:47.661Z,26.45
2022-09-24T02:47:14.686Z,25.83
2022-09-24T02:49:41.459Z,34.22
2022-09-24T02:52:08.282Z,24.75
2022-09-24T02:54:35.047Z,27.40
2022-09-24T02:57:01.906Z,30.42
2022-09-24T02:59:28.889Z,24.27
2022-09-24T03:02:02.289Z,27.48
2022-09-24T03:04:30.752Z,25.77
2022-09-24T03:06:57.545Z,25.67
2022-09-24T03:09:24.359Z,30.95
2022-09-24T03:11:51.082Z,27.27
2022-09-24T03:14:18.042Z,23.85
2022-09-24T03:16:44.889Z,33.65
2022-09-24T03:19:11.688Z,29.80
2022-09-24T03:21:38.550Z,25.85
2022-09-24T03:24:05.506Z,30.23
2022-09-24T03:26:33.063Z,37.45
2022-09-24T03:28:59.869Z,32.30
2022-09-24T03:31:26.716Z,27.08
2022-09-24T03:33:53.512Z,34.85
2022-09-24T03:36:24.793Z,32.63
2022-09-24T03:41:24.285Z,26.52
2022-09-24T03:43:51.396Z,33.95
2022-09-24T03:46:19.207Z,33.28
2022-09-24T03:48:47.402Z,33.63
2022-09-24T03:51:19.353Z,31.63
2022-09-24T03:53:47.292Z,26.83
2022-09-24T03:56:14.621Z,33.28
2022-09-24T03:58:41.871Z,33.22
2022-09-24T04:01:09.718Z,44.78
2022-09-24T04:03:36.531Z,34.17
2022-09-24T04:06:04.448Z,30.90
2022-09-24T04:08:31.750Z,30.33
2022-09-24T04:10:58.852Z,30.75
2022-09-24T04:13:25.824Z,34.25
2022-09-24T04:15:53.750Z,31.80
2022-09-24T04:18:21.086Z,35.22
2022-09-24T04:20:48.094Z,35.75
2022-09-24T04:23:15.377Z,30.65
2022-09-24T04:25:42.163Z,35.85
2022-09-24T04:28:10.467Z,35.80
2022-09-24T04:30:38.277Z,37.08
2022-09-24T04:33:06.131Z,37.63
2022-09-24T04:35:35.959Z,38.75
2022-09-24T04:38:04.362Z,35.50
2022-09-24T04:40:31.723Z,34.78
2022-09-24T04:42:59.272Z,36.13
2022-09-24T04:45:26.863Z,42.83
2022-09-24T04:47:58.080Z,39.97
2022-09-24T04:50:29.075Z,37.72
2022-09-24T04:52:55.972Z,39.42
2022-09-24T04:55:24.013Z,41.28
2022-09-24T04:57:51.320Z,39.35
2022-09-24T05:00:20.069Z,42.53
2022-09-24T05:02:47.708Z,43.47
2022-09-24T05:05:14.854Z,39.70
2022-09-24T05:07:42.746Z,48.08
2022-09-24T05:10:09.738Z,41.13
2022-09-24T05:12:36.682Z,36.90
2022-09-24T05:15:04.710Z,37.47
2022-09-24T05:17:31.601Z,43.28
2022-09-24T05:20:06.654Z,38.53
2022-09-24T05:22:33.477Z,46.28
2022-09-24T05:25:00.147Z,38.08
2022-09-24T05:27:26.760Z,38.38
2022-09-24T05:29:54.043Z,41.83
2022-09-24T05:32:20.914Z,34.88
2022-09-24T05:34:48.152Z,35.65
2022-09-24T05:37:15.552Z,40.25
2022-09-24T05:39:42.637Z,39.03
2022-09-24T05:42:10.915Z,40.05
2022-09-24T05:44:38.336Z,45.67
2022-09-24T05:47:05.256Z,39.25
2022-09-24T05:49:32.176Z,39.63
2022-09-24T05:51:59.081Z,37.65
2022-09-24T05:54:25.966Z,40.92
2022-09-24T05:56:53.025Z,39.60
2022-09-24T05:59:19.965Z,41.85
2022-09-24T06:01:46.886Z,36.05
2022-09-24T06:04:13.939Z,36.25
2022-09-24T06:06:40.751Z,38.13
2022-09-24T06:09:10.042Z,49.10
2022-09-24T06:11:40.354Z,45.70
2022-09-24T06:14:09.099Z,43.40
2022-09-24T06:16:36.135Z,40.05
2022-09-24T06:19:03.242Z,44.60
2022-09-24T06:21:30.054Z,53.08
2022-09-24T06:23:56.948Z,44.13
2022-09-24T06:26:26.121Z,39.85
2022-09-24T06:28:52.944Z,40.95
2022-09-24T06:31:20.345Z,36.20
2022-09-24T06:33:47.157Z,41.20
2022-09-24T06:36:14.258Z,35.53
2022-09-24T06:38:41.286Z,36.35
2022-09-24T06:41:08.332Z,45.92
2022-09-24T06:43:35.233Z,37.20
2022-09-24T06:46:03.295Z,37.30
2022-09-24T06:48:31.303Z,37.90
2022-09-24T06:50:58.164Z,38.70
2022-09-24T06:53:25.283Z,38.88
2022-09-24T06:55:53.413Z,43.10
2022-09-24T06:58:21.100Z,37.78
2022-09-24T07:01:14.062Z,42.58
2022-09-24T07:03:40.924Z,41.85
2022-09-24T07:06:07.901Z,37.47
2022-09-24T07:08:35.000Z,36.88
2022-09-24T07:11:02.278Z,32.38
2022-09-24T07:13:29.075Z,37.58
2022-09-24T07:15:56.041Z,36.83
2022-09-24T07:18:23.136Z,40.17
2022-09-24T07:20:54.319Z,34.78
2022-09-24T07:23:21.737Z,34.47
2022-09-24T07:25:49.269Z,38.13
2022-09-24T07:28:16.350Z,36.03
2022-09-24T07:30:43.202Z,34.38
2022-09-24T07:33:10.077Z,38.03
2022-09-24T07:35:40.143Z,35.45
2022-09-24T07:38:16.731Z,35.65
2022-09-24T07:40:44.903Z,35.15
2022-09-24T07:43:14.037Z,34.03
2022-09-24T07:45:42.373Z,38.60
2022-09-24T07:48:12.575Z,34.30
2022-09-24T07:50:40.374Z,34.30
2022-09-24T07:53:07.518Z,36.03
2022-09-24T07:55:39.561Z,38.17
2022-09-24T07:58:08.924Z,35.20
2022-09-24T08:00:35.675Z,34.05
2022-09-24T08:03:02.958Z,38.45
2022-09-24T08:05:29.801Z,37.38
2022-09-24T08:07:57.697Z,37.10
2022-09-24T08:10:26.477Z,35.30
2022-09-24T08:12:53.861Z,33.85
2022-09-24T08:15:22.682Z,36.03
2022-09-24T08:17:49.691Z,35.45
2022-09-24T08:20:16.494Z,31.67
2022-09-24T08:22:43.260Z,37.58
2022-09-24T08:25:12.623Z,38.67
2022-09-24T08:27:39.398Z,32.30
2022-09-24T08:30:06.950Z,36.22
2022-09-24T08:32:33.685Z,33.83
2022-09-24T08:35:00.736Z,32.10
2022-09-24T08:37:28.218Z,34.75
2022-09-24T08:39:55.156Z,34.58
2022-09-24T08:42:38.964Z,37.58
2022-09-24T08:45:25.086Z,34.75
2022-09-24T08:48:04.806Z,41.95
2022-09-24T08:50:33.493Z,31.05
2022-09-24T08:53:18.404Z,39.40
2022-09-24T08:55:50.137Z,33.97
2022-09-24T08:58:26.508Z,29.08
2022-09-24T09:01:01.854Z,28.35
2022-09-24T09:03:54.058Z,33.25
2022-09-24T09:06:42.879Z,28.50
2022-09-24T09:09:15.518Z,31.05
2022-09-24T09:11:49.298Z,29.35
2022-09-24T09:14:42.977Z,33.15
2022-09-24T09:17:36.708Z,29.58
2022-09-24T09:20:07.669Z,33.10
2022-09-24T09:22:42.781Z,23.33
2022-09-24T09:25:19.051Z,23.73
2022-09-24T09:27:49.441Z,21.15
2022-09-24T09:30:18.069Z,17.02
2022-09-24T09:33:10.249Z,13.73
2022-09-24T09:35:55.716Z,24.92
2022-09-24T09:38:47.417Z,18.63
2022-09-24T09:41:28.254Z,14.25
2022-09-24T09:44:00.996Z,22.45
2022-09-24T09:46:33.241Z,17.92
2022-09-24T09:49:03.068Z,18.90
2022-09-24T09:51:34.776Z,16.23
2022-09-24T09:54:03.469Z,14.80
2022-09-24T09:56:38.573Z,12.30
2022-09-24T09:59:11.320Z,14.00
2022-09-24T10:01:41.411Z,14.90
2022-09-24T10:04:32.931Z,13.98
2022-09-24T10:07:17.733Z,15.27
2022-09-24T10:09:45.815Z,13.25
2022-09-24T10:12:16.823Z,14.60
2022-09-24T10:14:44.361Z,13.23
2022-09-24T10:17:16.378Z,12.88
2022-09-24T10:19:47.724Z,11.45
2022-09-24T10:22:23.065Z,11.18
2022-09-24T10:24:50.543Z,12.13
2022-09-24T10:27:31.011Z,12.18
2022-09-24T10:30:18.491Z,15.45
2022-09-24T10:32:45.945Z,11.35
2022-09-24T10:35:23.923Z,12.70
2022-09-24T10:37:52.854Z,16.52
2022-09-24T10:40:24.302Z,12.27
2022-09-24T10:43:02.073Z,15.00
2022-09-24T10:45:56.787Z,13.35
2022-09-24T10:48:27.830Z,13.95
2022-09-24T10:51:11.680Z,15.35
2022-09-24T10:54:01.403Z,14.73
2022-09-24T10:56:40.930Z,14.57
2022-09-24T10:59:28.134Z,15.13
2022-09-24T11:02:07.062Z,18.50
2022-09-24T11:04:42.656Z,14.13
2022-09-24T11:07:47.038Z,22.33
2022-09-24T11:10:42.619Z,14.75
2022-09-24T11:13:29.399Z,13.73
2022-09-24T11:16:13.702Z,12.73
2022-09-24T11:19:02.870Z,17.73
2022-09-24T11:21:57.765Z,14.60
2022-09-24T11:24:33.938Z,17.10
2022-09-24T11:27:25.316Z,13.48
2022-09-24T11:30:16.564Z,15.23
2022-09-24T11:33:07.800Z,13.95
2022-09-24T11:36:16.022Z,13.75
2022-09-24T11:38:49.397Z,13.30
2022-09-24T11:41:55.329Z,17.55
2022-09-24T11:44:54.631Z,14.82
2022-09-24T11:47:39.875Z,13.65
2022-09-24T11:50:24.426Z,14.32
2022-09-24T11:52:56.446Z,15.15
2022-09-24T11:55:51.630Z,16.73
2022-09-24T11:58:23.227Z,18.60
2022-09-24T12:00:57.589Z,13.30
2022-09-24T12:03:27.698Z,17.42
2022-09-24T12:06:00.872Z,16.45
2022-09-24T12:08:38.954Z,16.50
2022-09-24T12:11:36.137Z,17.90
2022-09-24T12:14:25.075Z,17.48
2022-09-24T12:16:57.197Z,17.05
2022-09-24T12:19:51.411Z,16.00
2022-09-24T12:22:20.170Z,14.13
2022-09-24T12:24:51.298Z,15.60
2022-09-24T12:27:22.872Z,16.05
2022-09-24T12:30:14.648Z,15.50
2022-09-24T12:33:04.564Z,13.25
2022-09-24T12:35:57.181Z,13.30
2022-09-24T12:38:31.750Z,15.73
2022-09-24T12:40:58.454Z,12.25
2022-09-24T12:43:33.478Z,12.82
2022-09-24T12:46:02.769Z,13.25
2022-09-24T12:48:31.912Z,17.65
2022-09-24T12:51:00.305Z,11.75
2022-09-24T12:53:34.230Z,15.63
2022-09-24T12:56:02.081Z,13.95
2022-09-24T12:58:38.237Z,14.32
2022-09-24T13:01:25.376Z,17.45
2022-09-24T13:04:13.953Z,15.00
2022-09-24T13:06:41.908Z,15.13
2022-09-24T13:09:25.984Z,14.00
2022-09-24T13:12:03.875Z,14.02
2022-09-24T13:14:32.897Z,13.65
2022-09-24T13:17:05.279Z,14.45
2022-09-24T13:19:41.103Z,13.45
2022-09-24T13:22:26.131Z,12.75
2022-09-24T13:25:25.577Z,18.77
2022-09-24T13:28:02.240Z,16.95
2022-09-24T13:30:40.556Z,15.52
2022-09-24T13:33:31.403Z,16.92
2022-09-24T13:35:58.441Z,14.38
2022-09-24T13:38:33.097Z,17.60
2022-09-24T13:41:36.325Z,16.95
2022-09-24T13:44:14.442Z,15.77
2022-09-24T13:46:44.020Z,13.05
2022-09-24T13:49:16.360Z,14.80
2022-09-24T13:51:46.195Z,21.27
2022-09-24T13:54:25.074Z,14.00
2022-09-24T13:57:22.371Z,15.35
2022-09-24T13:59:49.216Z,13.98
2022-09-24T14:02:26.915Z,16.90
2022-09-24T14:04:59.238Z,17.60
2022-09-24T14:07:27.154Z,17.13
2022-09-24T14:10:05.891Z,17.58
2022-09-24T14:12:33.402Z,17.63
2022-09-24T14:15:00.248Z,25.75
2022-09-24T14:17:27.018Z,20.75
2022-09-24T14:19:56.237Z,17.98
2022-09-24T14:22:22.992Z,23.73
2022-09-24T14:25:07.693Z,20.33
2022-09-24T14:27:40.053Z,25.33
2022-09-24T14:30:08.640Z,20.50
2022-09-24T14:32:37.911Z,16.48
2022-09-24T14:35:11.334Z,23.17
2022-09-24T14:37:39.848Z,23.90
2022-09-24T14:40:12.769Z,20.60
2022-09-24T14:42:46.539Z,24.10
2022-09-24T14:45:37.870Z,22.13
2022-09-24T14:48:26.529Z,23.88
2022-09-24T14:50:53.435Z,24.08
2022-09-24T14:53:36.180Z,22.25
2022-09-24T14:56:20.395Z,26.02
2022-09-24T14:58:47.407Z,26.45
2022-09-24T15:01:17.329Z,26.83
2022-09-24T15:03:57.000Z,28.77
2022-09-24T15:06:26.618Z,27.60
2022-09-24T15:09:05.403Z,25.60
2022-09-24T15:11:35.047Z,33.50
2022-09-24T15:14:15.699Z,30.48
2022-09-24T15:16:43.702Z,26.90
2022-09-24T15:19:20.693Z,33.42
2022-09-24T15:21:52.595Z,29.10
2022-09-24T15:24:20.439Z,27.90
2022-09-24T15:26:50.580Z,29.35
2022-09-24T15:29:24.152Z,29.88
2022-09-24T15:31:52.139Z,29.60
2022-09-24T15:34:20.450Z,31.90
2022-09-24T15:36:48.666Z,30.83
2022-09-24T15:39:16.327Z,31.65
2022-09-24T15:41:43.076Z,30.52
2022-09-24T15:44:19.056Z,30.17
2022-09-24T15:46:48.125Z,26.90
2022-09-24T15:49:16.329Z,29.63
2022-09-24T15:51:43.197Z,31.45
2022-09-24T15:54:10.042Z,26.10
2022-09-24T15:56:38.348Z,26.40
2022-09-24T15:59:14.608Z,31.08
2022-09-24T16:01:42.505Z,26.40
2022-09-24T16:04:11.842Z,30.15
2022-09-24T16:06:38.893Z,28.95
2022-09-24T16:09:05.707Z,31.65
2022-09-24T16:11:32.644Z,29.00
2022-09-24T16:13:59.483Z,31.10
2022-09-24T16:16:26.436Z,32.78
2022-09-24T16:18:53.936Z,28.10
2022-09-24T16:21:21.122Z,25.83
2022-09-24T16:23:54.032Z,27.30
2022-09-24T16:26:20.784Z,36.40
2022-09-24T16:28:49.413Z,29.60
2022-09-24T16:31:16.260Z,27.92
2022-09-24T16:33:43.044Z,27.23
2022-09-24T16:36:10.193Z,28.90
2022-09-24T16:38:38.159Z,30.10
2022-09-24T16:41:06.426Z,27.73
2022-09-24T16:43:33.450Z,29.48
2022-09-24T16:46:03.621Z,29.80
2022-09-24T16:48:31.509Z,28.83
2022-09-24T16:51:05.992Z,27.50
2022-09-24T16:53:34.761Z,27.48
2022-09-24T16:56:10.865Z,28.08
2022-09-24T16:58:37.681Z,27.77
2022-09-24T17:01:09.242Z,34.65
2022-09-24T17:03:36.424Z,37.58
2022-09-24T17:06:04.316Z,34.15
2022-09-24T17:08:51.012Z,34.15
2022-09-24T17:11:18.135Z,38.65
2022-09-24T17:13:47.568Z,51.95
2022-09-24T17:16:15.249Z,48.08
2022-09-24T17:18:42.123Z,45.78
2022-09-24T17:21:12.469Z,48.55
2022-09-24T17:23:39.946Z,46.22
2022-09-24T17:26:09.277Z,49.78
2022-09-24T17:28:37.290Z,46.90
2022-09-24T17:31:04.931Z,51.28
2022-09-24T17:33:43.360Z,48.95
2022-09-24T17:36:12.453Z,55.60
2022-09-24T17:38:39.163Z,50.85
2022-09-24T17:41:08.203Z,53.08
2022-09-24T17:43:35.527Z,49.78
2022-09-24T17:46:12.921Z,52.17
2022-09-24T17:48:44.373Z,52.58
2022-09-24T17:51:14.668Z,50.58
2022-09-24T17:53:41.256Z,51.58
2022-09-24T17:56:10.000Z,50.05
2022-09-24T17:58:40.863Z,55.58
2022-09-24T18:01:12.492Z,58.00
2022-09-24T18:03:39.991Z,60.95
2022-09-24T18:06:09.705Z,56.40
2022-09-24T18:08:40.887Z,65.40
2022-09-24T18:11:10.467Z,61.42
2022-09-24T18:13:37.699Z,64.97
2022-09-24T18:16:07.034Z,58.08
2022-09-24T18:18:34.769Z,63.20
2022-09-24T18:21:06.673Z,65.13
2022-09-24T18:23:35.101Z,65.78
2022-09-24T18:26:18.877Z,59.22
2022-09-24T18:28:57.846Z,62.53
2022-09-24T18:31:28.187Z,60.42
2022-09-24T18:33:56.732Z,59.87
2022-09-24T18:36:25.540Z,62.17
2022-09-24T18:38:53.433Z,64.53
2022-09-24T18:41:25.446Z,66.18
2022-09-24T18:43:53.349Z,62.03
2022-09-24T18:46:22.014Z,60.05
2022-09-24T18:48:51.014Z,60.40
2022-09-24T18:51:20.459Z,68.15
2022-09-24T18:53:58.541Z,66.40
2022-09-24T18:56:26.193Z,67.22
2022-09-24T18:59:04.871Z,72.28
2022-09-24T19:01:35.662Z,72.13
2022-09-24T19:04:03.234Z,71.75
2022-09-24T19:06:31.550Z,73.88
2022-09-24T19:08:58.365Z,73.57
2022-09-24T19:11:25.186Z,76.47
2022-09-24T19:13:53.887Z,68.78
2022-09-24T19:16:25.290Z,67.78
2022-09-24T19:18:55.481Z,67.40
2022-09-24T19:21:24.535Z,71.60
2022-09-24T19:23:53.329Z,72.22
2022-09-24T19:26:22.468Z,63.70
2022-09-24T19:28:53.006Z,66.55
2022-09-24T19:31:22.976Z,65.18
2022-09-24T19:33:51.641Z,65.72
2022-09-24T19:36:18.988Z,62.22
2022-09-24T19:38:45.952Z,67.40
2022-09-24T19:41:19.469Z,63.08
2022-09-24T19:43:46.586Z,66.88
2022-09-24T19:46:15.739Z,67.97
2022-09-24T19:48:44.641Z,59.72
2022-09-24T19:51:19.803Z,73.63
2022-09-24T19:53:54.343Z,59.40
2022-09-24T19:56:24.674Z,53.95
2022-09-24T19:58:56.722Z,52.10
2022-09-24T20:01:28.042Z,51.83
2022-09-24T20:03:55.814Z,47.67
2022-09-24T20:06:24.877Z,41.58
2022-09-24T20:08:52.032Z,46.63
2022-09-24T20:11:21.201Z,38.90
2022-09-24T20:13:49.070Z,40.35
2022-09-24T20:16:19.142Z,33.60
2022-09-24T20:18:47.475Z,33.53
2022-09-24T20:21:16.297Z,35.35
2022-09-24T20:23:43.135Z,35.63
2022-09-24T20:26:29.632Z,35.78
2022-09-24T20:28:56.992Z,37.58
2022-09-24T20:31:24.309Z,27.70
2022-09-24T20:33:52.365Z,36.20
2022-09-24T20:36:23.398Z,30.83
2022-09-24T20:38:51.084Z,28.95
2022-09-24T20:41:20.753Z,33.00
2022-09-24T20:43:47.603Z,30.40
2022-09-24T20:46:21.767Z,32.08
2022-09-24T20:48:48.768Z,30.85
2022-09-24T20:51:18.333Z,31.35
2022-09-24T20:53:46.099Z,30.10
2022-09-24T20:56:12.985Z,30.60
2022-09-24T20:58:41.529Z,31.38
2022-09-24T21:01:09.183Z,31.02
2022-09-24T21:03:44.539Z,33.05
2022-09-24T21:06:12.505Z,31.75
2022-09-24T21:08:43.834Z,31.27
2022-09-24T21:13:50.118Z,32.83
2022-09-24T21:16:20.827Z,34.15
2022-09-24T21:18:49.068Z,35.97
2022-09-24T21:21:31.615Z,36.05
2022-09-24T21:24:00.867Z,31.05
2022-09-24T21:26:35.401Z,32.30
2022-09-24T21:29:09.111Z,31.63
2022-09-24T21:31:37.432Z,35.70
2022-09-24T21:34:05.568Z,36.33
2022-09-24T21:36:41.224Z,36.90
2022-09-24T21:39:16.597Z,36.97
2022-09-24T21:41:44.676Z,41.25
2022-09-24T21:44:14.191Z,39.53
2022-09-24T21:46:42.993Z,38.65
2022-09-24T21:49:11.074Z,39.95
2022-09-24T21:51:38.578Z,38.72
2022-09-24T21:54:07.561Z,39.40
2022-09-24T21:56:35.313Z,43.83
2022-09-24T21:59:22.314Z,42.60
2022-09-24T22:01:49.115Z,45.10
2022-09-24T22:04:15.998Z,44.95
2022-09-24T22:06:42.769Z,50.13
2022-09-24T22:09:10.311Z,55.67
2022-09-24T22:11:38.255Z,54.42
2022-09-24T22:14:05.142Z,49.33
2022-09-24T22:16:34.668Z,53.15
2022-09-24T22:19:03.665Z,52.92
2022-09-24T22:21:31.474Z,51.22
2022-09-24T22:23:58.686Z,48.10
2022-09-24T22:26:29.782Z,53.45
2022-09-24T22:28:56.879Z,37.67
2022-09-24T22:31:23.593Z,37.72
2022-09-24T22:34:09.326Z,40.28
2022-09-24T22:36:36.223Z,35.85
2022-09-24T22:39:04.568Z,36.42
2022-09-24T22:41:32.712Z,34.72
2022-09-24T22:43:59.570Z,32.75
2022-09-24T22:46:27.565Z,28.88
2022-09-24T22:48:55.226Z,28.38
2022-09-24T22:51:23.004Z,31.52
2022-09-24T22:53:49.896Z,28.58
2022-09-24T22:56:19.038Z,29.42
2022-09-24T22:58:50.830Z,31.05
2022-09-24T23:01:23.842Z,21.95
2022-09-24T23:03:52.069Z,23.67
2022-09-24T23:06:20.902Z,25.75
2022-09-24T23:08:48.525Z,27.45
2022-09-24T23:11:19.493Z,27.67
2022-09-24T23:13:47.727Z,20.48
2022-09-24T23:16:17.592Z,22.67
2022-09-24T23:18:46.668Z,26.02
2022-09-24T23:21:16.477Z,24.80
2022-09-24T23:23:44.176Z,24.30
2022-09-24T23:26:16.531Z,22.15
2022-09-24T23:28:45.070Z,22.63
2022-09-24T23:31:14.369Z,24.70
2022-09-24T23:33:42.257Z,27.63
2022-09-24T23:36:10.795Z,22.00
2022-09-24T23:38:37.369Z,25.73
2022-09-24T23:41:05.333Z,26.73
2022-09-24T23:43:32.633Z,27.25
2022-09-24T23:45:59.386Z,23.08
2022-09-24T23:48:26.514Z,20.40
2022-09-24T23:50:53.105Z,18.95
2022-09-24T23:53:21.659Z,19.35
2022-09-24T23:55:49.287Z,21.17
2022-09-24T23:58:18.249Z,22.80
